createdAt,value
2018-12-09T00:01:14.058Z,9.30
2018-12-09T00:03:41.850Z,9.40
2018-12-09T00:06:10.030Z,9.30
2018-12-09T00:08:38.066Z,9.20
2018-12-09T00:11:05.974Z,9.00
2018-12-09T00:13:33.512Z,8.90
2018-12-09T00:16:01.501Z,8.80
2018-12-09T00:18:29.023Z,8.70
2018-12-09T00:20:56.991Z,8.60
2018-12-09T00:23:24.514Z,8.50
2018-12-09T00:25:52.242Z,8.50
2018-12-09T00:28:19.770Z,8.50
2018-12-09T00:30:47.605Z,8.40
2018-12-09T00:33:15.190Z,8.40
2018-12-09T00:35:43.194Z,8.40
2018-12-09T00:38:10.735Z,8.40
2018-12-09T00:40:38.523Z,8.30
2018-12-09T00:43:06.065Z,8.40
2018-12-09T00:45:34.058Z,8.40
2018-12-09T00:48:01.680Z,8.40
2018-12-09T00:50:29.383Z,8.30
2018-12-09T00:52:56.918Z,8.30
2018-12-09T00:55:24.904Z,8.40
2018-12-09T00:57:52.437Z,8.40
2018-12-09T01:00:20.225Z,8.40
2018-12-09T01:02:47.804Z,8.40
2018-12-09T01:05:16.173Z,8.40
2018-12-09T01:07:44.014Z,8.50
2018-12-09T01:10:11.890Z,8.50
2018-12-09T01:12:39.428Z,8.50
2018-12-09T01:15:07.422Z,8.50
2018-12-09T01:17:35.462Z,8.60
2018-12-09T01:20:04.048Z,8.60
2018-12-09T01:22:31.576Z,8.60
2018-12-09T01:24:59.454Z,8.70
2018-12-09T01:27:26.995Z,8.70
2018-12-09T01:29:54.613Z,8.70
2018-12-09T01:32:22.910Z,8.70
2018-12-09T01:34:50.451Z,8.70
2018-12-09T01:37:18.442Z,8.70
2018-12-09T01:39:45.998Z,8.80
2018-12-09T01:42:13.768Z,8.70
2018-12-09T01:44:41.304Z,8.80
2018-12-09T01:47:09.078Z,8.80
2018-12-09T01:49:36.628Z,8.90
2018-12-09T01:52:05.024Z,8.90
2018-12-09T01:54:32.570Z,8.90
2018-12-09T01:57:00.768Z,8.90
2018-12-09T01:59:28.310Z,9.00
2018-12-09T02:01:56.151Z,9.00
2018-12-09T02:04:23.690Z,9.00
2018-12-09T02:06:52.019Z,9.00
2018-12-09T02:09:19.542Z,9.00
2018-12-09T02:11:47.266Z,9.10
2018-12-09T02:14:14.790Z,9.10
2018-12-09T02:16:42.868Z,9.10
2018-12-09T02:19:14.924Z,9.10
2018-12-09T02:21:43.714Z,9.20
2018-12-09T02:24:11.422Z,9.20
2018-12-09T02:26:38.957Z,9.20
2018-12-09T02:29:06.954Z,9.20
2018-12-09T02:31:34.745Z,9.30
2018-12-09T02:34:03.193Z,9.30
2018-12-09T02:36:30.809Z,9.30
2018-12-09T02:38:58.450Z,9.30
2018-12-09T02:41:25.986Z,9.30
2018-12-09T02:43:53.753Z,9.30
2018-12-09T02:46:21.298Z,9.30
2018-12-09T02:48:49.668Z,9.30
2018-12-09T02:51:17.205Z,9.30
2018-12-09T02:53:45.367Z,9.30
2018-12-09T02:56:12.906Z,9.40
2018-12-09T02:58:40.720Z,9.40
2018-12-09T03:01:08.373Z,9.40
2018-12-09T03:03:36.240Z,9.30
2018-12-09T03:06:04.116Z,9.30
2018-12-09T03:08:32.159Z,9.20
2018-12-09T03:10:59.689Z,9.20
2018-12-09T03:13:27.644Z,9.20
2018-12-09T03:15:55.260Z,9.10
2018-12-09T03:18:23.212Z,9.10
2018-12-09T03:20:50.799Z,9.10
2018-12-09T03:23:18.663Z,9.10
2018-12-09T03:25:46.382Z,9.10
2018-12-09T03:28:14.097Z,9.00
2018-12-09T03:30:41.625Z,9.00
2018-12-09T03:33:09.601Z,9.10
2018-12-09T03:35:37.775Z,9.00
2018-12-09T03:38:05.402Z,9.10
2018-12-09T03:40:32.936Z,9.10
2018-12-09T03:43:00.648Z,9.10
2018-12-09T03:45:28.192Z,9.10
2018-12-09T03:47:56.730Z,9.20
2018-12-09T03:50:24.332Z,9.20
2018-12-09T03:52:52.528Z,9.20
2018-12-09T03:55:20.138Z,9.20
2018-12-09T03:57:48.063Z,9.20
2018-12-09T04:00:16.023Z,9.20
2018-12-09T04:02:43.987Z,9.30
2018-12-09T04:05:12.092Z,9.30
2018-12-09T04:07:39.628Z,9.20
2018-12-09T04:10:07.752Z,9.20
2018-12-09T04:12:36.090Z,9.20
2018-12-09T04:15:04.011Z,9.10
2018-12-09T04:17:31.551Z,9.10
2018-12-09T04:19:59.255Z,9.10
2018-12-09T04:22:26.898Z,9.10
2018-12-09T04:24:54.768Z,9.10
2018-12-09T04:27:22.386Z,9.10
2018-12-09T04:29:50.516Z,9.00
2018-12-09T04:32:18.136Z,9.10
2018-12-09T04:34:46.115Z,9.10
2018-12-09T04:37:13.656Z,9.10
2018-12-09T04:39:41.400Z,9.10
2018-12-09T04:42:09.043Z,9.00
2018-12-09T04:44:36.587Z,9.00
2018-12-09T04:47:04.881Z,9.00
2018-12-09T04:49:32.742Z,9.00
2018-12-09T04:52:00.291Z,8.90
2018-12-09T04:54:28.072Z,8.70
2018-12-09T04:56:55.876Z,8.50
2018-12-09T04:59:23.565Z,8.40
2018-12-09T05:01:51.229Z,8.30
2018-12-09T05:04:19.730Z,8.20
2018-12-09T05:06:47.305Z,8.10
2018-12-09T05:09:14.853Z,8.10
2018-12-09T05:11:42.536Z,8.00
2018-12-09T05:14:10.074Z,8.00
2018-12-09T05:16:38.710Z,8.00
2018-12-09T05:19:06.315Z,8.00
2018-12-09T05:21:33.863Z,8.00
2018-12-09T05:24:02.009Z,8.00
2018-12-09T05:26:29.649Z,8.00
2018-12-09T05:28:57.187Z,8.00
2018-12-09T05:31:25.258Z,8.00
2018-12-09T05:33:52.987Z,8.00
2018-12-09T05:36:20.623Z,8.00
2018-12-09T05:38:48.449Z,8.00
2018-12-09T05:41:16.302Z,8.00
2018-12-09T05:43:44.763Z,8.00
2018-12-09T05:46:12.711Z,8.00
2018-12-09T05:48:40.243Z,8.00
2018-12-09T05:51:07.981Z,8.00
2018-12-09T05:53:35.503Z,8.00
2018-12-09T05:56:03.121Z,8.00
2018-12-09T05:58:30.668Z,8.00
2018-12-09T06:00:58.287Z,7.90
2018-12-09T06:03:25.972Z,7.90
2018-12-09T06:05:53.897Z,7.90
2018-12-09T06:08:21.584Z,7.90
2018-12-09T06:10:49.995Z,7.90
2018-12-09T06:13:17.817Z,8.00
2018-12-09T06:15:45.349Z,8.00
2018-12-09T06:18:13.006Z,7.90
2018-12-09T06:20:40.654Z,7.90
2018-12-09T06:23:08.307Z,7.90
2018-12-09T06:25:35.929Z,7.90
2018-12-09T06:28:03.479Z,7.90
2018-12-09T06:30:31.333Z,7.80
2018-12-09T06:32:58.859Z,7.80
2018-12-09T06:35:26.489Z,7.80
2018-12-09T06:37:54.895Z,7.70
2018-12-09T06:40:22.743Z,7.70
2018-12-09T06:42:50.389Z,7.70
2018-12-09T06:45:18.185Z,7.70
2018-12-09T06:47:45.732Z,7.70
2018-12-09T06:50:13.696Z,7.70
2018-12-09T06:52:41.671Z,7.70
2018-12-09T06:55:09.367Z,7.70
2018-12-09T06:57:36.907Z,7.70
2018-12-09T07:00:05.082Z,7.70
2018-12-09T07:02:32.624Z,7.70
2018-12-09T07:05:01.025Z,7.70
2018-12-09T07:07:28.579Z,7.70
2018-12-09T07:09:56.650Z,7.70
2018-12-09T07:12:24.195Z,7.70
2018-12-09T07:14:51.899Z,7.70
2018-12-09T07:17:19.478Z,7.80
2018-12-09T07:19:47.111Z,7.80
2018-12-09T07:22:14.642Z,7.80
2018-12-09T07:24:42.718Z,7.80
2018-12-09T07:27:10.262Z,7.80
2018-12-09T07:29:38.114Z,7.80
2018-12-09T07:32:06.058Z,7.90
2018-12-09T07:34:33.600Z,7.90
2018-12-09T07:37:01.225Z,7.90
2018-12-09T07:39:28.872Z,7.90
2018-12-09T07:41:56.613Z,7.90
2018-12-09T07:44:24.762Z,7.90
2018-12-09T07:46:52.384Z,7.90
2018-12-09T07:49:20.345Z,7.90
2018-12-09T07:51:47.976Z,7.90
2018-12-09T07:54:15.522Z,7.90
2018-12-09T07:56:43.551Z,7.90
2018-12-09T07:59:11.070Z,7.90
2018-12-09T08:01:38.624Z,7.80
2018-12-09T08:04:06.344Z,7.90
2018-12-09T08:06:33.872Z,7.90
2018-12-09T08:09:02.078Z,8.00
2018-12-09T08:11:29.720Z,8.00
2018-12-09T08:13:57.330Z,8.00
2018-12-09T08:16:25.008Z,8.00
2018-12-09T08:18:52.549Z,8.10
2018-12-09T08:21:20.380Z,8.10
2018-12-09T08:23:47.977Z,8.20
2018-12-09T08:26:15.499Z,8.20
2018-12-09T08:28:43.111Z,8.20
2018-12-09T08:31:10.652Z,8.20
2018-12-09T08:33:38.330Z,8.20
2018-12-09T08:36:06.139Z,8.20
2018-12-09T08:38:33.669Z,8.10
2018-12-09T08:41:01.333Z,8.20
2018-12-09T08:43:28.971Z,8.20
2018-12-09T08:45:57.290Z,8.20
2018-12-09T08:48:25.473Z,8.20
2018-12-09T08:50:52.998Z,8.20
2018-12-09T08:53:20.602Z,8.20
2018-12-09T08:55:48.234Z,8.30
2018-12-09T08:58:15.957Z,8.30
2018-12-09T09:00:43.508Z,8.40
2018-12-09T09:03:11.146Z,8.40
2018-12-09T09:05:39.100Z,8.50
2018-12-09T09:08:06.712Z,8.60
2018-12-09T09:10:34.658Z,8.60
2018-12-09T09:13:02.784Z,8.70
2018-12-09T09:15:30.326Z,8.70
2018-12-09T09:17:58.074Z,8.70
2018-12-09T09:20:25.606Z,8.70
2018-12-09T09:22:53.548Z,8.80
2018-12-09T09:25:21.078Z,8.90
2018-12-09T09:27:48.692Z,8.90
2018-12-09T09:30:16.378Z,9.00
2018-12-09T09:32:44.112Z,9.00
2018-12-09T09:35:11.639Z,9.00
2018-12-09T09:37:39.291Z,9.10
2018-12-09T09:40:07.012Z,9.00
2018-12-09T09:42:35.051Z,9.00
2018-12-09T09:45:02.665Z,9.10
2018-12-09T09:47:30.303Z,9.10
2018-12-09T09:49:57.855Z,9.10
2018-12-09T09:52:25.870Z,9.10
2018-12-09T09:54:53.413Z,9.20
2018-12-09T09:57:21.233Z,9.20
2018-12-09T09:59:48.985Z,9.20
2018-12-09T10:02:17.333Z,9.30
2018-12-09T10:04:45.398Z,9.30
2018-12-09T10:07:12.926Z,9.40
2018-12-09T10:09:40.778Z,9.40
2018-12-09T10:12:08.313Z,9.40
2018-12-09T10:14:36.301Z,9.50
2018-12-09T10:17:03.826Z,9.50
2018-12-09T10:19:31.755Z,9.50
2018-12-09T10:21:59.287Z,9.50
2018-12-09T10:24:26.963Z,9.50
2018-12-09T10:26:54.510Z,9.50
2018-12-09T10:29:22.717Z,9.50
2018-12-09T10:31:50.249Z,9.50
2018-12-09T10:34:18.236Z,9.50
2018-12-09T10:36:45.794Z,9.50
2018-12-09T10:39:13.336Z,9.50
2018-12-09T10:41:41.612Z,9.50
2018-12-09T10:44:09.145Z,9.50
2018-12-09T10:46:36.819Z,9.50
2018-12-09T10:49:04.585Z,9.40
2018-12-09T10:51:32.130Z,9.40
2018-12-09T10:53:59.987Z,9.50
2018-12-09T10:56:27.608Z,9.50
2018-12-09T10:58:55.164Z,9.60
2018-12-09T11:01:26.989Z,9.70
2018-12-09T11:03:55.176Z,9.70
2018-12-09T11:06:23.156Z,9.80
2018-12-09T11:08:50.759Z,9.90
2018-12-09T11:11:18.379Z,9.90
2018-12-09T11:13:45.919Z,9.90
2018-12-09T11:16:13.662Z,10.00
2018-12-09T11:18:41.211Z,10.00
2018-12-09T11:21:08.752Z,10.10
2018-12-09T11:23:36.563Z,10.10
2018-12-09T11:26:04.118Z,10.20
2018-12-09T11:28:31.744Z,10.20
2018-12-09T11:30:59.391Z,10.20
2018-12-09T11:33:26.940Z,10.20
2018-12-09T11:35:54.584Z,10.30
2018-12-09T11:38:22.129Z,10.30
2018-12-09T11:40:50.390Z,10.20
2018-12-09T11:43:17.994Z,10.20
2018-12-09T11:45:45.571Z,10.10
2018-12-09T11:48:13.192Z,10.10
2018-12-09T11:50:40.737Z,10.00
2018-12-09T11:53:08.346Z,10.00
2018-12-09T11:55:35.879Z,10.00
2018-12-09T11:58:03.836Z,10.00
2018-12-09T12:00:31.369Z,10.10
2018-12-09T12:02:58.995Z,10.10
2018-12-09T12:05:26.629Z,10.10
2018-12-09T12:07:54.210Z,10.10
2018-12-09T12:10:22.548Z,10.10
2018-12-09T12:12:50.104Z,10.10
2018-12-09T12:15:17.653Z,10.00
2018-12-09T12:17:45.409Z,10.00
2018-12-09T12:20:12.954Z,10.00
2018-12-09T12:22:41.078Z,9.90
2018-12-09T12:25:08.608Z,9.90
2018-12-09T12:27:36.234Z,9.90
2018-12-09T12:30:05.527Z,9.80
2018-12-09T12:32:33.362Z,9.80
2018-12-09T12:35:00.886Z,9.70
2018-12-09T12:37:28.756Z,9.70
2018-12-09T12:39:56.294Z,9.70
2018-12-09T12:42:24.478Z,9.70
2018-12-09T12:44:52.015Z,9.60
2018-12-09T12:47:19.779Z,9.60
2018-12-09T12:49:47.506Z,9.60
2018-12-09T12:52:15.233Z,9.50
2018-12-09T12:54:42.800Z,9.50
2018-12-09T12:57:10.991Z,9.40
2018-12-09T12:59:38.528Z,9.40
2018-12-09T13:02:06.300Z,9.40
2018-12-09T13:04:33.951Z,9.40
2018-12-09T13:07:01.615Z,9.40
2018-12-09T13:09:29.682Z,9.40
2018-12-09T13:11:57.634Z,9.50
2018-12-09T13:14:25.177Z,9.50
2018-12-09T13:16:53.146Z,9.40
2018-12-09T13:19:20.672Z,9.40
2018-12-09T13:21:48.436Z,9.40
2018-12-09T13:24:15.968Z,9.40
2018-12-09T13:26:43.634Z,9.40
2018-12-09T13:29:11.198Z,9.40
2018-12-09T13:31:39.088Z,9.30
2018-12-09T13:34:06.698Z,9.20
2018-12-09T13:36:34.609Z,9.10
2018-12-09T13:39:02.142Z,8.80
2018-12-09T13:41:29.969Z,8.50
2018-12-09T13:43:57.581Z,8.30
2018-12-09T13:46:25.131Z,8.20
2018-12-09T13:48:52.960Z,8.10
2018-12-09T13:51:20.514Z,8.00
2018-12-09T13:53:48.538Z,7.90
2018-12-09T13:56:16.070Z,7.90
2018-12-09T13:58:43.935Z,7.80
2018-12-09T14:01:11.467Z,7.70
2018-12-09T14:03:39.717Z,7.70
2018-12-09T14:06:07.244Z,7.70
2018-12-09T14:08:35.192Z,7.70
2018-12-09T14:11:02.738Z,7.70
2018-12-09T14:13:30.756Z,7.80
2018-12-09T14:15:58.281Z,7.70
2018-12-09T14:18:26.077Z,7.70
2018-12-09T14:20:53.618Z,7.70
2018-12-09T14:23:21.292Z,7.70
2018-12-09T14:25:48.839Z,7.70
2018-12-09T14:28:16.967Z,7.60
2018-12-09T14:30:44.559Z,7.60
2018-12-09T14:33:12.502Z,7.70
2018-12-09T14:35:40.072Z,7.70
2018-12-09T14:38:08.101Z,7.60
2018-12-09T14:40:35.639Z,7.70
2018-12-09T14:43:03.518Z,7.70
2018-12-09T14:45:31.356Z,7.60
2018-12-09T14:47:59.270Z,7.60
2018-12-09T14:50:26.891Z,7.60
2018-12-09T14:52:54.665Z,7.60
2018-12-09T14:55:22.193Z,7.60
2018-12-09T14:57:50.212Z,7.60
2018-12-09T15:00:17.745Z,7.60
2018-12-09T15:02:45.483Z,7.70
2018-12-09T15:05:15.333Z,7.70
2018-12-09T15:07:42.995Z,7.70
2018-12-09T15:10:11.064Z,7.70
2018-12-09T15:12:38.678Z,7.80
2018-12-09T15:15:06.812Z,7.80
2018-12-09T15:17:34.359Z,7.80
2018-12-09T15:20:02.097Z,7.80
2018-12-09T15:22:29.734Z,7.90
2018-12-09T15:24:57.859Z,7.90
2018-12-09T15:27:25.491Z,7.90
2018-12-09T15:29:53.662Z,7.90
2018-12-09T15:32:22.642Z,7.90
2018-12-09T15:34:50.568Z,7.90
2018-12-09T15:37:18.134Z,7.90
2018-12-09T15:39:46.002Z,7.90
2018-12-09T15:42:13.679Z,7.90
2018-12-09T15:44:41.371Z,7.90
2018-12-09T15:47:08.910Z,7.90
2018-12-09T15:49:36.739Z,7.80
2018-12-09T15:52:04.272Z,7.80
2018-12-09T15:54:32.963Z,7.80
2018-12-09T15:57:00.498Z,7.80
2018-12-09T15:59:31.999Z,7.70
2018-12-09T16:01:58.205Z,7.70
2018-12-09T16:04:26.872Z,7.70
2018-12-09T16:06:54.395Z,7.70
2018-12-09T16:09:22.037Z,7.70
2018-12-09T16:11:49.629Z,7.70
2018-12-09T16:14:18.124Z,7.70
2018-12-09T16:16:45.654Z,7.70
2018-12-09T16:19:13.674Z,7.80
2018-12-09T16:21:41.428Z,7.80
2018-12-09T16:24:09.702Z,7.80
2018-12-09T16:26:37.274Z,7.80
2018-12-09T16:29:04.959Z,7.80
2018-12-09T16:31:32.995Z,7.80
2018-12-09T16:34:00.551Z,7.80
2018-12-09T16:36:28.251Z,7.90
2018-12-09T16:38:55.841Z,7.80
2018-12-09T16:41:23.996Z,7.80
2018-12-09T16:43:51.520Z,7.80
2018-12-09T16:46:19.503Z,7.80
2018-12-09T16:48:47.025Z,7.80
2018-12-09T16:51:14.874Z,7.80
2018-12-09T16:53:42.400Z,7.80
2018-12-09T16:56:10.214Z,7.80
2018-12-09T16:58:37.751Z,7.80
2018-12-09T17:01:05.635Z,7.90
2018-12-09T17:03:33.166Z,7.90
2018-12-09T17:06:01.647Z,7.90
2018-12-09T17:08:29.175Z,7.80
2018-12-09T17:10:56.827Z,7.80
2018-12-09T17:13:24.362Z,7.80
2018-12-09T17:15:52.479Z,7.80
2018-12-09T17:18:20.128Z,7.80
2018-12-09T17:20:48.686Z,7.80
2018-12-09T17:23:16.307Z,7.80
2018-12-09T17:25:44.061Z,7.80
2018-12-09T17:28:11.676Z,7.80
2018-12-09T17:30:39.422Z,7.70
2018-12-09T17:33:06.967Z,7.80
2018-12-09T17:35:34.634Z,7.70
2018-12-09T17:38:02.244Z,7.70
2018-12-09T17:40:31.360Z,7.70
2018-12-09T17:42:58.889Z,7.70
2018-12-09T17:45:26.595Z,7.70
2018-12-09T17:47:54.228Z,7.80
2018-12-09T17:50:22.169Z,7.70
2018-12-09T17:52:49.977Z,7.80
2018-12-09T17:55:18.290Z,7.70
2018-12-09T17:57:45.832Z,7.70
2018-12-09T18:00:14.707Z,7.70
2018-12-09T18:02:42.526Z,7.60
2018-12-09T18:05:11.109Z,7.60
2018-12-09T18:07:38.688Z,7.60
2018-12-09T18:10:07.329Z,7.60
2018-12-09T18:12:34.867Z,7.50
2018-12-09T18:15:02.579Z,7.50
2018-12-09T18:17:30.698Z,7.50
2018-12-09T18:20:00.998Z,7.50
2018-12-09T18:22:28.679Z,7.40
2018-12-09T18:24:56.454Z,7.50
2018-12-09T18:27:24.573Z,7.50
2018-12-09T18:29:52.438Z,7.60
2018-12-09T18:32:20.734Z,7.60
2018-12-09T18:34:48.369Z,7.60
2018-12-09T18:37:16.723Z,7.60
2018-12-09T18:39:44.474Z,7.60
2018-12-09T18:42:13.507Z,7.60
2018-12-09T18:44:41.281Z,7.60
2018-12-09T18:47:09.346Z,7.60
2018-12-09T18:49:36.874Z,7.60
2018-12-09T18:52:05.079Z,7.60
2018-12-09T18:54:32.612Z,7.70
2018-12-09T18:57:00.742Z,7.70
2018-12-09T18:59:28.378Z,7.70
2018-12-09T19:01:56.343Z,7.60
2018-12-09T19:04:24.553Z,7.60
2018-12-09T19:06:52.535Z,7.60
2018-12-09T19:09:20.076Z,7.60
2018-12-09T19:11:48.048Z,7.60
2018-12-09T19:14:15.583Z,7.60
2018-12-09T19:16:44.035Z,7.60
2018-12-09T19:19:11.574Z,7.60
2018-12-09T19:21:39.389Z,7.60
2018-12-09T19:24:07.141Z,7.60
2018-12-09T19:26:35.010Z,7.60
2018-12-09T19:29:02.910Z,7.60
2018-12-09T19:31:30.458Z,7.70
2018-12-09T19:33:58.207Z,7.70
2018-12-09T19:36:25.760Z,7.60
2018-12-09T19:38:53.630Z,7.50
2018-12-09T19:41:21.444Z,7.50
2018-12-09T19:43:49.875Z,7.50
2018-12-09T19:46:17.525Z,7.50
2018-12-09T19:48:45.240Z,7.40
2018-12-09T19:51:13.611Z,7.40
2018-12-09T19:53:41.592Z,7.30
2018-12-09T19:56:09.120Z,7.30
2018-12-09T19:58:36.923Z,7.30
2018-12-09T20:01:04.470Z,7.20
2018-12-09T20:03:32.237Z,7.20
2018-12-09T20:06:00.481Z,7.10
2018-12-09T20:08:28.339Z,7.10
2018-12-09T20:10:55.882Z,7.10
2018-12-09T20:13:25.593Z,7.10
2018-12-09T20:15:54.379Z,7.10
2018-12-09T20:18:22.102Z,7.10
2018-12-09T20:20:50.567Z,7.10
2018-12-09T20:23:18.454Z,7.10
2018-12-09T20:25:46.060Z,7.10
2018-12-09T20:28:14.227Z,7.10
2018-12-09T20:30:42.007Z,7.00
2018-12-09T20:33:09.976Z,7.00
2018-12-09T20:35:37.541Z,7.00
2018-12-09T20:38:05.192Z,6.90
2018-12-09T20:40:33.514Z,6.80
2018-12-09T20:43:01.056Z,6.80
2018-12-09T20:45:28.855Z,6.80
2018-12-09T20:47:56.405Z,6.80
2018-12-09T20:50:24.558Z,6.70
2018-12-09T20:52:53.010Z,6.80
2018-12-09T20:55:20.973Z,6.80
2018-12-09T20:57:48.516Z,6.80
2018-12-09T21:00:17.840Z,6.80
2018-12-09T21:02:45.484Z,5.80
2018-12-09T21:05:13.816Z,5.60
2018-12-09T21:07:41.504Z,5.50
2018-12-09T21:10:09.540Z,5.40
2018-12-09T21:12:37.372Z,5.40
2018-12-09T21:15:05.979Z,5.50
2018-12-09T21:17:33.571Z,5.50
2018-12-09T21:20:01.434Z,5.60
2018-12-09T21:22:28.975Z,5.70
2018-12-09T21:24:56.983Z,5.80
2018-12-09T21:27:24.749Z,5.90
2018-12-09T21:29:52.790Z,5.90
2018-12-09T21:32:20.327Z,5.90
2018-12-09T21:34:49.031Z,5.90
2018-12-09T21:37:16.564Z,5.90
2018-12-09T21:39:44.560Z,6.00
2018-12-09T21:42:12.087Z,6.10
2018-12-09T21:44:39.872Z,6.10
2018-12-09T21:47:07.409Z,6.20
2018-12-09T21:49:35.214Z,6.20
2018-12-09T21:52:03.031Z,6.30
2018-12-09T21:54:32.364Z,6.30
2018-12-09T21:56:59.906Z,6.40
2018-12-09T21:59:27.917Z,6.40
2018-12-09T22:01:55.445Z,6.40
2018-12-09T22:04:24.643Z,6.40
2018-12-09T22:06:52.235Z,6.40
2018-12-09T22:09:19.979Z,6.40
2018-12-09T22:11:47.553Z,6.40
2018-12-09T22:14:15.889Z,6.40
2018-12-09T22:16:43.556Z,6.40
2018-12-09T22:19:11.452Z,6.40
2018-12-09T22:21:40.006Z,6.40
2018-12-09T22:24:07.788Z,6.40
2018-12-09T22:26:35.317Z,6.40
2018-12-09T22:29:03.311Z,6.40
2018-12-09T22:31:30.843Z,6.30
2018-12-09T22:33:58.987Z,6.40
2018-12-09T22:36:26.549Z,6.30
2018-12-09T22:38:55.125Z,6.30
2018-12-09T22:41:22.709Z,6.40
2018-12-09T22:43:50.977Z,6.30
2018-12-09T22:46:18.630Z,6.30
2018-12-09T22:48:46.185Z,6.30
2018-12-09T22:51:14.526Z,6.40
2018-12-09T22:53:42.057Z,6.40
2018-12-09T22:56:09.865Z,6.40
2018-12-09T22:58:37.388Z,6.40
2018-12-09T23:01:10.910Z,6.40
2018-12-09T23:03:38.538Z,6.40
2018-12-09T23:06:07.076Z,6.40
2018-12-09T23:08:34.620Z,6.40
2018-12-09T23:11:03.583Z,6.30
2018-12-09T23:13:31.115Z,6.40
2018-12-09T23:15:58.928Z,6.40
2018-12-09T23:18:26.711Z,6.40
2018-12-09T23:20:54.875Z,6.30
2018-12-09T23:23:23.089Z,6.30
2018-12-09T23:25:51.010Z,6.30
2018-12-09T23:28:21.136Z,6.30
2018-12-09T23:30:49.021Z,6.20
2018-12-09T23:33:16.556Z,6.10
2018-12-09T23:35:44.319Z,6.10
2018-12-09T23:38:12.130Z,6.10
2018-12-09T23:40:39.858Z,6.10
2018-12-09T23:43:07.398Z,6.10
2018-12-09T23:45:35.165Z,6.10
2018-12-09T23:48:02.698Z,6.10
2018-12-09T23:50:30.729Z,6.10
2018-12-09T23:52:58.260Z,6.20
2018-12-09T23:55:28.035Z,6.20
2018-12-09T23:57:55.579Z,6.20
